Detall de PIREP

Printer-friendly versionPDF version

[2014/11/03 15:02:00]
Flight IATA:CT2110
Pilot Number:037
Company ICAO:CAT
Aircraft Type:B752/E
PAX:95
Aircraft Registration:PAX
Departing Airport: LEVC
Destination Airport: LEST
Alternate Airport:LEMD
Online: VATSIM
Route:CENTA A33 PRADO/N0450F330 UN733 ZMR/N0430F230 A33 FORNO
Flight Level:F300
No Slew and time accel
No pause
Crash detect
Detect pilot in Cockpit between each 30 and 45 minutes
15:02 Zero fuel Weight: 152722 Lbs, Fuel Weight: 23796 Lbs
15:02 VATSIM:LEVC 031430Z 23012KT 200V260 9999 SCT025 26/08 Q1009 NOSIG
15:02 VATSIM:LEST 031430Z 32010KT 270V010 4000 -RA BR FEW004 BKN014 OVC030 13/12 Q1000 NOSIG
15:07 Parking Brakes off
15:16 Take-off
15:16 Take off Weight: 175372 Lbs
15:16 Wind: 199º @ 009 Knots Heading: 117º
15:16 POS N39º 29´ 18´´ W000º 28´ 46´´
15:16 Flaps:1 at 183 Knots
15:16 Gear Up: 188 Knots
15:16 Flaps:0 at 207 Knots
15:24 Gear Down: 326 Knots
15:24 Gear Up: 326 Knots
15:29 TOC
15:29 Fuel Weight: 19321 Lb
15:31 Wind:230º@044 Knots Heading: 294º Ground Speed: 473 Knots Altitude 29888 ft
15:46 Wind:236º@050 Knots Heading: 291º Ground Speed: 454 Knots Altitude 29917 ft
16:01 Wind:213º@058 Knots Heading: 297º Ground Speed: 488 Knots Altitude 29730 ft
16:05 TOD
16:05 Fuel Weight: 13673 Lb
16:16 Wind:320º@021 Knots Heading: 299º Ground Speed: 313 Knots Altitude 10711 ft
16:20 Flaps:1 at 193 Knots
16:22 Flaps:2 at 180 Knots
16:22 Flaps:3 at 171 Knots
16:23 Flaps:4 at 157 Knots
16:23 Gear Down: 152 Knots
16:24 Flaps:5 at 149 Knots
16:27 TouchDown:Rate -387 ft/min Speed: 129 Knots
16:27 VATSIM:LEST 031600Z 33010KT 290V360 6000 -RA SCT007 BKN012 OVC030 11/10 Q1001 NOSIG
16:27 Land
16:27 Wind:352º@010 Knots
16:27 Heading: 345º
16:27 Flight Duration: 01:11
16:27 Landing Weight: 164873 Lbs
16:27 POS N42º 53´ 39´´ W008º 24´ 52´´
16:28 Parking brakes on
16:28 Block to Block Duration: 01:21
16:28 Final Fuel: 12012 Lbls
16:28 Spent Fuel: 11783 Lbls
16:28 Flight Length: 456 NM
16:28 TOD Land Length: 96 NM

Exportar CSV

Powered by Drupal - Modified by Danger4k